createdAt,value
2019-05-23T00:00:01.273Z,100815.89
2019-05-23T00:02:48.208Z,100806.55
2019-05-23T00:05:36.887Z,100802.56
2019-05-23T00:08:29.294Z,100799.89
2019-05-23T00:11:30.124Z,100800.78
2019-05-23T00:14:05.327Z,100796.36
2019-05-23T00:16:34.905Z,100797.62
2019-05-23T00:19:04.610Z,100798.92
2019-05-23T00:21:34.848Z,100788.73
2019-05-23T00:24:05.260Z,100783.83
2019-05-23T00:26:36.073Z,100786.44
2019-05-23T00:29:10.405Z,100795.28
2019-05-23T00:31:47.991Z,100788.25
2019-05-23T00:34:19.277Z,100781.17
2019-05-23T00:36:49.725Z,100782.95
2019-05-23T00:39:20.125Z,100775.44
2019-05-23T00:41:50.836Z,100765.70
2019-05-23T00:44:21.066Z,100770.97
2019-05-23T00:46:50.335Z,100766.58
2019-05-23T00:49:20.040Z,100754.68
2019-05-23T00:51:49.368Z,100740.11
2019-05-23T00:54:19.600Z,100737.86
2019-05-23T00:56:49.046Z,100743.97
2019-05-23T00:59:27.254Z,100739.13
2019-05-23T01:01:50.195Z,100742.63
2019-05-23T01:04:20.918Z,100733.83
2019-05-23T01:06:50.900Z,100736.92
2019-05-23T01:09:20.497Z,100730.73
2019-05-23T01:11:50.330Z,100736.06
2019-05-23T01:14:21.526Z,100743.09
2019-05-23T01:16:51.411Z,100748.38
2019-05-23T01:19:21.401Z,100742.69
2019-05-23T01:22:00.749Z,100743.13
2019-05-23T01:24:43.329Z,100752.81
2019-05-23T01:27:14.394Z,100759.00
2019-05-23T01:29:50.348Z,100764.23
2019-05-23T01:32:26.921Z,100768.61
2019-05-23T01:34:58.037Z,100758.02
2019-05-23T01:37:27.334Z,100748.27
2019-05-23T01:39:56.975Z,100754.02
2019-05-23T01:42:28.367Z,100756.69
2019-05-23T01:44:59.511Z,100752.68
2019-05-23T01:47:29.316Z,100753.12
2019-05-23T01:49:59.086Z,100751.33
2019-05-23T01:52:30.127Z,100746.92
2019-05-23T01:55:00.469Z,100754.86
2019-05-23T01:57:30.445Z,100742.93
2019-05-23T02:00:10.039Z,100742.51
2019-05-23T02:02:30.900Z,100737.19
2019-05-23T02:05:00.292Z,100743.80
2019-05-23T02:07:31.643Z,100753.09
2019-05-23T02:10:00.947Z,100746.05
2019-05-23T02:12:30.871Z,100750.02
2019-05-23T02:15:00.893Z,100749.59
2019-05-23T02:17:31.533Z,100746.98
2019-05-23T02:20:01.774Z,100748.76
2019-05-23T02:22:32.162Z,100753.60
2019-05-23T02:25:03.144Z,100754.47
2019-05-23T02:27:33.202Z,100747.86
2019-05-23T02:30:02.818Z,100750.51
2019-05-23T02:32:34.186Z,100741.68
2019-05-23T02:35:04.559Z,100744.28
2019-05-23T02:37:59.198Z,100742.06
2019-05-23T02:40:59.611Z,100754.86
2019-05-23T02:43:31.811Z,100758.41
2019-05-23T02:46:06.108Z,100756.64
2019-05-23T02:48:43.413Z,100726.59
2019-05-23T02:51:19.449Z,100751.36
2019-05-23T02:53:53.074Z,100754.88
2019-05-23T02:56:23.479Z,100753.55
2019-05-23T02:59:18.202Z,100757.95
2019-05-23T03:02:45.615Z,100766.31
2019-05-23T03:05:18.134Z,100766.73
2019-05-23T03:07:47.926Z,100760.99
2019-05-23T03:10:20.611Z,100762.73
2019-05-23T03:12:52.983Z,100763.61
2019-05-23T03:15:25.251Z,100767.58
2019-05-23T03:17:58.678Z,100780.34
2019-05-23T03:20:29.914Z,100766.16
2019-05-23T03:23:04.141Z,100761.27
2019-05-23T03:26:15.795Z,100753.34
2019-05-23T03:28:45.973Z,100759.98
2019-05-23T03:31:29.538Z,100768.79
2019-05-23T03:33:54.684Z,100755.14
2019-05-23T03:36:25.112Z,100763.97
2019-05-23T03:38:54.728Z,100769.71
2019-05-23T03:41:24.018Z,100760.92
2019-05-23T03:43:54.211Z,100763.13
2019-05-23T03:46:26.916Z,100767.06
2019-05-23T03:48:58.104Z,100768.84
2019-05-23T03:51:27.454Z,100765.33
2019-05-23T03:53:57.529Z,100769.77
2019-05-23T03:56:26.857Z,100761.42
2019-05-23T03:58:58.480Z,100753.09
2019-05-23T04:01:46.247Z,100750.89
2019-05-23T04:04:03.219Z,100749.59
2019-05-23T04:06:33.125Z,100757.57
2019-05-23T04:09:04.202Z,100758.05
2019-05-23T04:11:34.331Z,100751.45
2019-05-23T04:14:03.576Z,100759.83
2019-05-23T04:16:32.972Z,100758.97
2019-05-23T04:19:02.506Z,100766.03
2019-05-23T04:21:31.717Z,100770.46
2019-05-23T04:24:01.538Z,100765.18
2019-05-23T04:26:31.065Z,100765.64
2019-05-23T04:29:01.340Z,100756.86
2019-05-23T04:31:30.959Z,100757.30
2019-05-23T04:34:00.489Z,100759.53
2019-05-23T04:36:29.701Z,100759.55
2019-05-23T04:38:59.863Z,100755.19
2019-05-23T04:41:29.312Z,100757.87
2019-05-23T04:43:58.553Z,100760.11
2019-05-23T04:46:27.812Z,100752.66
2019-05-23T04:48:58.462Z,100755.78
2019-05-23T04:51:28.216Z,100754.94
2019-05-23T04:53:57.685Z,100762.49
2019-05-23T04:56:27.122Z,100762.50
2019-05-23T04:58:57.274Z,100772.22
2019-05-23T05:01:27.259Z,100773.99
2019-05-23T05:03:57.923Z,100769.58
2019-05-23T05:06:27.259Z,100777.09
2019-05-23T05:08:57.547Z,100788.12
2019-05-23T05:11:30.474Z,100787.24
2019-05-23T05:13:59.648Z,100786.36
2019-05-23T05:16:29.047Z,100796.08
2019-05-23T05:18:58.600Z,100804.03
2019-05-23T05:21:27.836Z,100804.91
2019-05-23T05:23:57.752Z,100814.18
2019-05-23T05:26:27.154Z,100818.14
2019-05-23T05:28:58.740Z,100819.02
2019-05-23T05:31:28.275Z,100818.58
2019-05-23T05:33:57.564Z,100828.72
2019-05-23T05:36:27.022Z,100826.05
2019-05-23T05:38:58.633Z,100825.17
2019-05-23T05:41:28.976Z,100820.30
2019-05-23T05:43:58.195Z,100822.95
2019-05-23T05:46:27.515Z,100814.99
2019-05-23T05:48:57.736Z,100818.52
2019-05-23T05:51:28.233Z,100808.39
2019-05-23T05:53:57.577Z,100803.98
2019-05-23T05:56:26.932Z,100811.94
2019-05-23T05:58:56.174Z,100821.67
2019-05-23T06:01:33.851Z,100833.61
2019-05-23T06:03:57.410Z,100840.69
2019-05-23T06:06:34.166Z,100835.84
2019-05-23T06:09:10.483Z,100839.38
2019-05-23T06:11:41.203Z,100840.27
2019-05-23T06:14:10.572Z,100842.94
2019-05-23T06:16:40.368Z,100850.02
2019-05-23T06:19:10.313Z,100846.89
2019-05-23T06:21:40.348Z,100843.80
2019-05-23T06:24:09.681Z,100842.50
2019-05-23T06:26:39.989Z,100843.37
2019-05-23T06:29:09.441Z,100838.48
2019-05-23T06:31:39.365Z,100842.02
2019-05-23T06:34:08.785Z,100843.78
2019-05-23T06:36:38.052Z,100845.10
2019-05-23T06:39:09.085Z,100843.80
2019-05-23T06:41:38.404Z,100848.67
2019-05-23T06:44:09.152Z,100844.70
2019-05-23T06:46:38.746Z,100842.50
2019-05-23T06:49:08.044Z,100846.02
2019-05-23T06:51:37.767Z,100835.41
2019-05-23T06:54:07.979Z,100830.54
2019-05-23T06:56:37.237Z,100819.03
2019-05-23T06:59:06.934Z,100830.05
2019-05-23T07:01:36.297Z,100844.13
2019-05-23T07:04:07.065Z,100840.96
2019-05-23T07:06:36.398Z,100843.55
2019-05-23T07:09:11.955Z,100844.85
2019-05-23T07:11:41.249Z,100847.04
2019-05-23T07:14:11.756Z,100842.56
2019-05-23T07:16:41.498Z,100859.25
2019-05-23T07:19:11.057Z,100877.28
2019-05-23T07:21:40.755Z,100868.39
2019-05-23T07:24:12.624Z,100867.05
2019-05-23T07:26:41.950Z,100869.23
2019-05-23T07:29:13.444Z,100882.02
2019-05-23T07:31:42.748Z,100862.58
2019-05-23T07:34:12.252Z,100883.71
2019-05-23T07:36:41.989Z,100885.86
2019-05-23T07:39:12.005Z,100870.78
2019-05-23T07:41:41.860Z,100867.30
2019-05-23T07:44:11.525Z,100880.52
2019-05-23T07:46:42.524Z,100884.92
2019-05-23T07:49:12.454Z,100900.24
2019-05-23T07:51:42.758Z,100910.61
2019-05-23T07:54:31.233Z,100921.16
2019-05-23T07:57:01.825Z,100918.28
2019-05-23T07:59:31.676Z,100919.09
2019-05-23T08:02:12.047Z,100915.88
2019-05-23T08:04:41.899Z,100927.72
2019-05-23T08:07:12.764Z,100924.14
2019-05-23T08:09:42.786Z,100932.91
2019-05-23T08:12:12.243Z,100926.62
2019-05-23T08:14:41.480Z,100923.45
2019-05-23T08:17:11.667Z,100929.66
2019-05-23T08:19:49.668Z,100912.41
2019-05-23T08:22:12.285Z,100900.08
2019-05-23T08:24:42.182Z,100909.77
2019-05-23T08:27:12.080Z,100922.53
2019-05-23T08:29:43.247Z,100902.20
2019-05-23T08:32:13.074Z,100902.20
2019-05-23T08:34:43.752Z,100892.91
2019-05-23T08:37:14.206Z,100916.15
2019-05-23T08:39:44.508Z,100929.64
2019-05-23T08:42:13.733Z,100934.22
2019-05-23T08:44:43.587Z,100937.16
2019-05-23T08:47:13.195Z,100940.56
2019-05-23T08:49:42.814Z,100945.89
2019-05-23T08:52:12.096Z,100946.41
2019-05-23T08:54:41.953Z,100942.20
2019-05-23T08:57:13.131Z,100945.78
2019-05-23T08:59:43.278Z,100946.91
2019-05-23T09:02:13.291Z,100952.31
2019-05-23T09:05:02.227Z,100959.61
2019-05-23T09:07:14.513Z,100947.50
2019-05-23T09:09:44.995Z,100930.47
2019-05-23T09:12:14.905Z,100926.72
2019-05-23T09:14:44.147Z,100937.85
2019-05-23T09:17:13.782Z,100935.67
2019-05-23T09:19:43.369Z,100941.45
2019-05-23T09:22:12.614Z,100940.75
2019-05-23T09:24:41.958Z,100938.73
2019-05-23T09:27:11.855Z,100934.45
2019-05-23T09:29:42.325Z,100903.52
2019-05-23T09:32:11.805Z,100933.27
2019-05-23T09:34:41.105Z,100933.72
2019-05-23T09:37:11.815Z,100928.47
2019-05-23T09:39:42.373Z,100924.95
2019-05-23T09:42:12.295Z,100930.20
2019-05-23T09:44:41.973Z,100940.30
2019-05-23T09:47:11.440Z,100936.78
2019-05-23T09:49:40.744Z,100932.09
2019-05-23T09:52:11.340Z,100932.09
2019-05-23T09:54:41.484Z,100935.64
2019-05-23T09:57:11.673Z,100937.91
2019-05-23T09:59:40.931Z,100939.73
2019-05-23T10:02:12.088Z,100939.73
2019-05-23T10:04:41.415Z,100944.15
2019-05-23T10:07:10.640Z,100936.28
2019-05-23T10:09:40.023Z,100936.28
2019-05-23T10:12:09.487Z,100931.99
2019-05-23T10:14:39.573Z,100929.67
2019-05-23T10:17:09.240Z,100929.67
2019-05-23T10:19:38.541Z,100931.56
2019-05-23T10:22:08.443Z,100927.27
2019-05-23T10:24:37.953Z,100918.97
2019-05-23T10:27:08.999Z,100919.42
2019-05-23T10:29:38.254Z,100923.44
2019-05-23T10:32:09.507Z,100923.95
2019-05-23T10:34:38.679Z,100925.32
2019-05-23T10:37:09.651Z,100928.00
2019-05-23T10:39:39.286Z,100932.90
2019-05-23T10:42:08.644Z,100936.47
2019-05-23T10:44:38.388Z,100936.47
2019-05-23T10:47:07.752Z,100935.25
2019-05-23T10:49:36.961Z,100938.02
2019-05-23T10:52:06.800Z,100940.73
2019-05-23T10:54:36.076Z,100943.41
2019-05-23T10:57:05.470Z,100946.99
2019-05-23T10:59:34.903Z,100954.93
2019-05-23T11:02:05.859Z,100953.17
2019-05-23T11:04:35.162Z,100958.05
2019-05-23T11:07:06.002Z,100952.78
2019-05-23T11:09:38.175Z,100958.05
2019-05-23T11:12:08.823Z,100962.80
2019-05-23T11:14:38.224Z,100967.56
2019-05-23T11:17:10.142Z,100969.09
2019-05-23T11:19:39.493Z,100972.80
2019-05-23T11:22:08.770Z,100976.10
2019-05-23T11:24:41.423Z,100973.10
2019-05-23T11:27:10.658Z,100973.10
2019-05-23T11:29:39.838Z,100981.45
2019-05-23T11:32:10.654Z,100987.62
2019-05-23T11:34:40.049Z,100983.80
2019-05-23T11:37:09.347Z,100983.80
2019-05-23T11:39:42.236Z,100974.88
2019-05-23T11:42:10.289Z,100975.33
2019-05-23T11:44:41.521Z,100968.45
2019-05-23T11:47:10.989Z,100970.41
2019-05-23T11:49:40.474Z,100969.21
2019-05-23T11:52:10.401Z,100970.64
2019-05-23T11:54:40.072Z,100967.62
2019-05-23T11:57:09.681Z,100970.46
2019-05-23T11:59:39.623Z,100970.17
2019-05-23T12:02:15.712Z,100974.71
2019-05-23T12:04:45.329Z,100974.38
2019-05-23T12:07:24.948Z,100971.53
2019-05-23T12:09:54.961Z,100976.73
2019-05-23T12:12:24.137Z,100975.11
2019-05-23T12:14:53.906Z,100967.00
2019-05-23T12:17:24.892Z,100968.21
2019-05-23T12:19:54.310Z,100967.84
2019-05-23T12:22:24.402Z,100969.73
2019-05-23T12:24:54.423Z,100964.87
2019-05-23T12:27:23.630Z,100968.56
2019-05-23T12:29:55.170Z,100972.09
2019-05-23T12:32:24.830Z,100975.09
2019-05-23T12:35:09.485Z,100971.63
2019-05-23T12:37:28.319Z,100971.80
2019-05-23T12:39:57.992Z,100981.41
2019-05-23T12:42:27.345Z,100975.00
2019-05-23T12:44:57.739Z,100968.93
2019-05-23T12:47:52.123Z,100972.02
2019-05-23T12:50:25.841Z,100971.05
2019-05-23T12:52:55.035Z,100976.27
2019-05-23T12:55:24.882Z,100981.31
2019-05-23T12:57:54.658Z,100981.31
2019-05-23T13:00:47.063Z,100976.64
2019-05-23T13:03:17.140Z,100972.63
2019-05-23T13:05:48.184Z,100973.74
2019-05-23T13:08:17.624Z,100975.27
2019-05-23T13:10:47.212Z,100977.81
2019-05-23T13:13:16.608Z,100978.17
2019-05-23T13:15:46.296Z,100978.17
2019-05-23T13:18:16.101Z,100977.66
2019-05-23T13:20:45.503Z,100967.83
2019-05-23T13:23:20.779Z,100972.88
2019-05-23T13:25:46.483Z,100969.11
2019-05-23T13:28:15.832Z,100969.11
2019-05-23T13:30:47.551Z,100841.73
2019-05-23T13:33:17.281Z,100967.20
2019-05-23T13:35:47.127Z,100967.20
2019-05-23T13:38:16.946Z,100969.11
2019-05-23T13:40:46.456Z,100967.83
2019-05-23T13:43:15.669Z,100966.39
2019-05-23T13:45:45.444Z,100969.48
2019-05-23T13:48:14.703Z,100969.48
2019-05-23T13:50:44.053Z,100976.55
2019-05-23T13:53:13.556Z,100967.39
2019-05-23T13:55:43.674Z,100978.20
2019-05-23T13:58:14.934Z,100978.20
2019-05-23T14:00:44.623Z,100966.38
2019-05-23T14:03:14.070Z,100973.80
2019-05-23T14:05:43.630Z,100969.44
2019-05-23T14:08:13.569Z,100966.32
2019-05-23T14:10:43.773Z,100966.32
2019-05-23T14:13:13.371Z,100969.89
2019-05-23T14:15:44.650Z,100972.45
2019-05-23T14:18:18.139Z,100966.94
2019-05-23T14:20:47.563Z,100970.00
2019-05-23T14:23:29.984Z,100967.77
2019-05-23T14:25:59.792Z,100967.62
2019-05-23T14:28:32.207Z,100964.13
2019-05-23T14:31:23.055Z,100961.88
2019-05-23T14:34:09.578Z,100960.02
2019-05-23T14:36:57.781Z,100963.84
2019-05-23T14:39:39.438Z,100955.16
2019-05-23T14:42:16.383Z,100949.77
2019-05-23T14:44:45.720Z,100949.77
2019-05-23T14:47:32.714Z,100953.59
2019-05-23T14:50:15.680Z,100951.71
2019-05-23T14:52:45.220Z,100955.00
2019-05-23T14:55:14.474Z,100949.17
2019-05-23T14:57:43.981Z,100949.17
2019-05-23T15:00:13.565Z,100949.78
2019-05-23T15:02:42.959Z,100945.98
2019-05-23T15:05:13.348Z,100948.48
2019-05-23T15:07:42.758Z,100948.70
2019-05-23T15:10:13.041Z,100952.86
2019-05-23T15:12:42.771Z,100829.93
2019-05-23T15:15:12.730Z,100943.25
2019-05-23T15:17:42.349Z,100948.35
2019-05-23T15:20:11.873Z,100919.92
2019-05-23T15:22:41.137Z,100934.73
2019-05-23T15:25:13.154Z,100935.84
2019-05-23T15:27:42.838Z,100926.88
2019-05-23T15:30:12.539Z,100928.13
2019-05-23T15:32:41.741Z,100921.00
2019-05-23T15:35:11.562Z,100925.19
2019-05-23T15:37:40.917Z,100924.56
2019-05-23T15:40:10.387Z,100922.47
2019-05-23T15:42:39.906Z,100922.48
2019-05-23T15:45:09.501Z,100918.37
2019-05-23T15:47:38.961Z,100915.73
2019-05-23T15:50:11.845Z,100919.92
2019-05-23T15:52:47.525Z,100915.25
2019-05-23T15:55:35.135Z,100921.43
2019-05-23T15:58:11.782Z,100914.77
2019-05-23T16:01:06.542Z,100910.81
2019-05-23T16:03:41.921Z,100907.84
2019-05-23T16:06:15.766Z,100906.77
2019-05-23T16:08:45.073Z,100907.80
2019-05-23T16:11:17.422Z,100908.37
2019-05-23T16:13:45.579Z,100899.93
2019-05-23T16:16:14.934Z,100896.42
2019-05-23T16:18:44.659Z,100897.83
2019-05-23T16:21:16.070Z,100891.80
2019-05-23T16:23:45.362Z,100895.28
2019-05-23T16:26:14.679Z,100895.52
2019-05-23T16:28:44.350Z,100893.61
2019-05-23T16:31:13.711Z,100894.58
2019-05-23T16:33:42.940Z,100888.23
2019-05-23T16:36:12.618Z,100887.42
2019-05-23T16:38:41.929Z,100888.44
2019-05-23T16:41:11.840Z,100889.59
2019-05-23T16:43:41.466Z,100892.27
2019-05-23T16:46:10.739Z,100885.08
2019-05-23T16:48:40.053Z,100892.27
2019-05-23T16:51:09.563Z,100892.47
2019-05-23T16:53:39.245Z,100889.05
2019-05-23T16:56:16.878Z,100889.17
2019-05-23T16:59:04.405Z,100888.50
2019-05-23T17:02:00.420Z,100889.70
2019-05-23T17:04:37.217Z,100887.36
2019-05-23T17:07:25.603Z,100883.50
2019-05-23T17:10:08.598Z,100886.88
2019-05-23T17:12:41.465Z,100886.84
2019-05-23T17:15:28.511Z,100891.25
2019-05-23T17:18:19.592Z,100889.19
2019-05-23T17:20:58.759Z,100896.34
2019-05-23T17:23:42.701Z,100903.46
2019-05-23T17:26:27.082Z,100900.63
2019-05-23T17:28:56.486Z,100905.61
2019-05-23T17:31:31.898Z,100911.57
2019-05-23T17:34:01.675Z,100902.36
2019-05-23T17:36:30.925Z,100908.16
2019-05-23T17:39:00.138Z,100910.52
2019-05-23T17:41:29.730Z,100908.34
2019-05-23T17:43:59.070Z,100907.91
2019-05-23T17:46:28.417Z,100906.59
2019-05-23T17:48:58.141Z,100905.22
2019-05-23T17:51:27.836Z,100910.45
2019-05-23T17:53:57.103Z,100902.88
2019-05-23T17:56:26.740Z,100913.02
2019-05-23T17:58:56.300Z,100911.20
2019-05-23T18:01:27.387Z,100913.77
2019-05-23T18:03:56.617Z,100907.11
2019-05-23T18:06:27.602Z,100910.63
2019-05-23T18:08:57.146Z,100911.02
2019-05-23T18:11:27.384Z,100911.37
2019-05-23T18:13:57.587Z,100912.66
2019-05-23T18:16:27.092Z,100913.54
2019-05-23T18:18:56.389Z,100913.10
2019-05-23T18:21:25.641Z,100913.05
2019-05-23T18:23:56.173Z,100916.54
2019-05-23T18:26:25.455Z,100919.98
2019-05-23T18:28:55.214Z,100922.53
2019-05-23T18:31:27.713Z,100927.70
2019-05-23T18:33:58.417Z,100922.80
2019-05-23T18:36:28.587Z,100921.42
2019-05-23T18:38:57.950Z,100924.90
2019-05-23T18:41:28.161Z,100924.42
2019-05-23T18:43:59.720Z,100920.42
2019-05-23T18:46:39.226Z,100921.72
2019-05-23T18:49:09.980Z,100924.77
2019-05-23T18:51:40.422Z,100924.25
2019-05-23T18:54:10.099Z,100930.80
2019-05-23T18:56:39.443Z,100928.14
2019-05-23T18:59:12.007Z,100928.09
2019-05-23T19:01:42.007Z,100929.34
2019-05-23T19:04:11.629Z,100927.48
2019-05-23T19:06:41.231Z,100933.14
2019-05-23T19:09:13.679Z,100932.24
2019-05-23T19:11:43.515Z,100929.98
2019-05-23T19:14:12.905Z,100935.64
2019-05-23T19:16:42.167Z,100936.44
2019-05-23T19:19:11.982Z,100937.24
2019-05-23T19:21:41.376Z,100939.38
2019-05-23T19:24:11.196Z,100938.42
2019-05-23T19:26:40.651Z,100936.16
2019-05-23T19:29:11.144Z,100940.03
2019-05-23T19:31:40.382Z,100941.75
2019-05-23T19:34:10.191Z,100938.10
2019-05-23T19:36:39.451Z,100942.41
2019-05-23T19:39:08.893Z,100946.30
2019-05-23T19:41:38.888Z,100946.70
2019-05-23T19:44:08.399Z,100942.67
2019-05-23T19:46:37.659Z,100944.77
2019-05-23T19:49:10.112Z,100942.08
2019-05-23T19:51:39.902Z,100949.47
2019-05-23T19:54:09.568Z,100951.13
2019-05-23T19:56:39.008Z,100952.77
2019-05-23T19:59:08.281Z,100953.59
2019-05-23T20:01:53.971Z,100948.11
2019-05-23T20:04:28.472Z,100948.84
2019-05-23T20:06:55.662Z,100942.09
2019-05-23T20:09:25.805Z,100945.45
2019-05-23T20:11:55.216Z,100940.54
2019-05-23T20:14:24.793Z,100949.16
2019-05-23T20:16:54.150Z,100949.16
2019-05-23T20:19:23.390Z,100951.25
2019-05-23T20:21:52.879Z,100946.78
2019-05-23T20:24:22.528Z,100943.18
2019-05-23T20:26:51.875Z,100943.98
2019-05-23T20:29:23.872Z,100947.01
2019-05-23T20:31:53.631Z,100947.01
2019-05-23T20:34:23.009Z,100941.63
2019-05-23T20:36:52.479Z,100945.55
2019-05-23T20:39:22.824Z,100942.39
2019-05-23T20:41:51.988Z,100945.39
2019-05-23T20:44:21.511Z,100945.39
2019-05-23T20:46:51.460Z,100951.45
2019-05-23T20:49:21.200Z,100952.34
2019-05-23T20:51:54.135Z,100955.37
2019-05-23T20:54:23.464Z,100953.57
2019-05-23T20:56:52.737Z,100945.06
2019-05-23T20:59:22.455Z,100945.06
2019-05-23T21:01:52.171Z,100950.75
2019-05-23T21:04:21.433Z,100951.61
2019-05-23T21:06:53.303Z,100946.28
2019-05-23T21:09:22.559Z,100952.80
2019-05-23T21:11:54.183Z,100954.97
2019-05-23T21:14:23.563Z,100953.16
2019-05-23T21:16:52.807Z,100953.59
2019-05-23T21:19:22.178Z,100948.30
2019-05-23T21:21:51.541Z,100946.09
2019-05-23T21:24:20.892Z,100942.20
2019-05-23T21:26:50.110Z,100942.20
2019-05-23T21:29:19.668Z,100946.12
2019-05-23T21:31:48.914Z,100939.05
2019-05-23T21:34:21.858Z,100939.02
2019-05-23T21:36:49.313Z,100929.65
2019-05-23T21:39:18.955Z,100929.65
2019-05-23T21:41:50.499Z,100939.84
2019-05-23T21:44:19.916Z,100929.69
2019-05-23T21:46:49.266Z,100938.53
2019-05-23T21:49:18.582Z,100941.19
2019-05-23T21:51:51.460Z,100936.29
2019-05-23T21:54:19.111Z,100936.29
2019-05-23T21:56:48.321Z,100928.80
2019-05-23T21:59:17.863Z,100937.97
2019-05-23T22:02:03.159Z,100929.06
2019-05-23T22:04:43.770Z,100935.11
2019-05-23T22:07:13.256Z,100931.56
2019-05-23T22:09:43.605Z,100926.62
2019-05-23T22:12:14.589Z,100936.16
2019-05-23T22:14:44.406Z,100931.19
2019-05-23T22:17:13.822Z,100932.00
2019-05-23T22:19:43.449Z,100932.86
2019-05-23T22:22:13.173Z,100934.14
2019-05-23T22:24:42.481Z,100928.42
2019-05-23T22:27:11.792Z,100926.64
2019-05-23T22:29:41.421Z,100930.09
2019-05-23T22:32:12.300Z,100922.98
2019-05-23T22:34:48.528Z,100919.01
2019-05-23T22:37:21.862Z,100923.73
2019-05-23T22:39:51.410Z,100926.33
2019-05-23T22:42:21.131Z,100928.03
2019-05-23T22:44:50.643Z,100925.80
2019-05-23T22:47:20.050Z,100923.55
2019-05-23T22:49:49.363Z,100923.98
2019-05-23T22:52:18.584Z,100914.82
2019-05-23T22:54:48.001Z,100911.73
2019-05-23T22:57:17.210Z,100912.62
2019-05-23T22:59:46.428Z,100912.58
2019-05-23T23:02:18.114Z,100912.97
2019-05-23T23:04:47.448Z,100910.73
2019-05-23T23:07:16.759Z,100904.13
2019-05-23T23:09:46.538Z,100914.22
2019-05-23T23:12:17.312Z,100912.86
2019-05-23T23:14:46.604Z,100907.57
2019-05-23T23:17:17.620Z,100903.17
2019-05-23T23:19:47.134Z,100904.41
2019-05-23T23:22:16.347Z,100896.84
2019-05-23T23:24:45.821Z,100904.19
2019-05-23T23:27:15.030Z,100900.64
2019-05-23T23:29:44.238Z,100900.22
2019-05-23T23:32:14.038Z,100903.23
2019-05-23T23:34:43.250Z,100900.61
2019-05-23T23:37:12.500Z,100896.59
2019-05-23T23:39:42.030Z,100900.95
2019-05-23T23:42:11.255Z,100904.58
2019-05-23T23:44:39.502Z,100892.37
2019-05-23T23:47:26.907Z,100895.92
2019-05-23T23:50:13.958Z,100888.50
2019-05-23T23:53:00.867Z,100891.52
2019-05-23T23:55:47.850Z,100882.75
2019-05-23T23:58:20.045Z,100855.09
